sensor_id;sensor_type;location;lat;lon;timestamp;P1;durP1;ratioP1;P2;durP2;ratioP2
73670;SDS011;61968;48.178;11.566;2023-02-13T00:02:15;10.73;;;4.35;;
73670;SDS011;61968;48.178;11.566;2023-02-13T00:04:42;10.90;;;4.75;;
73670;SDS011;61968;48.178;11.566;2023-02-13T00:07:09;10.85;;;4.90;;
73670;SDS011;61968;48.178;11.566;2023-02-13T00:09:38;7.80;;;4.43;;
73670;SDS011;61968;48.178;11.566;2023-02-13T00:12:05;10.50;;;4.68;;
73670;SDS011;61968;48.178;11.566;2023-02-13T00:14:33;8.73;;;5.03;;
73670;SDS011;61968;48.178;11.566;2023-02-13T00:17:00;12.85;;;5.60;;
73670;SDS011;61968;48.178;11.566;2023-02-13T00:21:53;11.98;;;4.97;;
73670;SDS011;61968;48.178;11.566;2023-02-13T00:24:20;9.70;;;5.00;;
73670;SDS011;61968;48.178;11.566;2023-02-13T00:29:14;8.05;;;3.65;;
73670;SDS011;61968;48.178;11.566;2023-02-13T00:31:41;13.05;;;5.68;;
73670;SDS011;61968;48.178;11.566;2023-02-13T00:34:07;10.85;;;4.97;;
73670;SDS011;61968;48.178;11.566;2023-02-13T00:36:34;12.18;;;5.07;;
73670;SDS011;61968;48.178;11.566;2023-02-13T00:39:03;10.15;;;5.35;;
73670;SDS011;61968;48.178;11.566;2023-02-13T00:43:57;10.13;;;4.85;;
73670;SDS011;61968;48.178;11.566;2023-02-13T00:46:26;14.57;;;5.45;;
73670;SDS011;61968;48.178;11.566;2023-02-13T00:48:53;10.88;;;5.15;;
73670;SDS011;61968;48.178;11.566;2023-02-13T00:51:19;8.50;;;4.45;;
73670;SDS011;61968;48.178;11.566;2023-02-13T00:53:46;10.30;;;5.18;;
73670;SDS011;61968;48.178;11.566;2023-02-13T00:56:12;11.93;;;6.13;;
73670;SDS011;61968;48.178;11.566;2023-02-13T00:58:39;13.30;;;5.13;;
73670;SDS011;61968;48.178;11.566;2023-02-13T01:01:07;10.15;;;4.75;;
73670;SDS011;61968;48.178;11.566;2023-02-13T01:03:33;12.68;;;5.78;;
73670;SDS011;61968;48.178;11.566;2023-02-13T01:06:00;9.60;;;4.95;;
73670;SDS011;61968;48.178;11.566;2023-02-13T01:08:26;10.05;;;4.85;;
73670;SDS011;61968;48.178;11.566;2023-02-13T01:10:53;13.02;;;5.68;;
73670;SDS011;61968;48.178;11.566;2023-02-13T01:13:20;13.07;;;6.97;;
73670;SDS011;61968;48.178;11.566;2023-02-13T01:18:15;12.95;;;5.70;;
73670;SDS011;61968;48.178;11.566;2023-02-13T01:20:43;10.35;;;5.20;;
73670;SDS011;61968;48.178;11.566;2023-02-13T01:23:11;13.25;;;5.50;;
73670;SDS011;61968;48.178;11.566;2023-02-13T01:25:38;11.98;;;5.90;;
73670;SDS011;61968;48.178;11.566;2023-02-13T01:28:05;11.43;;;5.47;;
73670;SDS011;61968;48.178;11.566;2023-02-13T01:30:32;14.52;;;6.22;;
73670;SDS011;61968;48.178;11.566;2023-02-13T01:32:58;9.70;;;5.43;;
73670;SDS011;61968;48.178;11.566;2023-02-13T01:35:26;11.20;;;5.55;;
73670;SDS011;61968;48.178;11.566;2023-02-13T01:37:53;11.65;;;4.75;;
73670;SDS011;61968;48.178;11.566;2023-02-13T01:40:19;13.68;;;5.53;;
73670;SDS011;61968;48.178;11.566;2023-02-13T01:42:46;11.57;;;4.85;;
73670;SDS011;61968;48.178;11.566;2023-02-13T01:45:22;13.90;;;5.97;;
73670;SDS011;61968;48.178;11.566;2023-02-13T01:47:52;15.35;;;5.75;;
73670;SDS011;61968;48.178;11.566;2023-02-13T01:50:23;10.52;;;5.97;;
73670;SDS011;61968;48.178;11.566;2023-02-13T01:52:56;15.20;;;6.63;;
73670;SDS011;61968;48.178;11.566;2023-02-13T01:55:27;12.30;;;6.30;;
73670;SDS011;61968;48.178;11.566;2023-02-13T01:57:55;13.50;;;5.85;;
73670;SDS011;61968;48.178;11.566;2023-02-13T02:00:27;9.30;;;5.10;;
73670;SDS011;61968;48.178;11.566;2023-02-13T02:02:56;12.82;;;5.97;;
73670;SDS011;61968;48.178;11.566;2023-02-13T02:05:27;11.95;;;5.25;;
73670;SDS011;61968;48.178;11.566;2023-02-13T02:07:59;11.43;;;5.18;;
73670;SDS011;61968;48.178;11.566;2023-02-13T02:10:29;11.60;;;5.40;;
73670;SDS011;61968;48.178;11.566;2023-02-13T02:12:57;11.88;;;6.25;;
73670;SDS011;61968;48.178;11.566;2023-02-13T02:15:30;9.25;;;5.40;;
73670;SDS011;61968;48.178;11.566;2023-02-13T02:17:56;12.40;;;5.07;;
73670;SDS011;61968;48.178;11.566;2023-02-13T02:20:25;12.25;;;4.97;;
73670;SDS011;61968;48.178;11.566;2023-02-13T02:23:20;11.52;;;5.93;;
73670;SDS011;61968;48.178;11.566;2023-02-13T02:29:08;13.40;;;6.45;;
73670;SDS011;61968;48.178;11.566;2023-02-13T02:34:46;13.68;;;6.32;;
73670;SDS011;61968;48.178;11.566;2023-02-13T02:37:29;13.05;;;5.75;;
73670;SDS011;61968;48.178;11.566;2023-02-13T02:40:12;11.90;;;5.53;;
73670;SDS011;61968;48.178;11.566;2023-02-13T02:42:52;9.65;;;5.32;;
73670;SDS011;61968;48.178;11.566;2023-02-13T02:45:27;12.38;;;6.03;;
73670;SDS011;61968;48.178;11.566;2023-02-13T02:48:04;10.35;;;5.25;;
73670;SDS011;61968;48.178;11.566;2023-02-13T02:50:53;9.10;;;5.18;;
73670;SDS011;61968;48.178;11.566;2023-02-13T02:53:28;12.60;;;6.35;;
73670;SDS011;61968;48.178;11.566;2023-02-13T02:56:00;9.35;;;5.45;;
73670;SDS011;61968;48.178;11.566;2023-02-13T02:58:32;13.02;;;6.28;;
73670;SDS011;61968;48.178;11.566;2023-02-13T03:01:22;12.13;;;5.90;;
73670;SDS011;61968;48.178;11.566;2023-02-13T03:04:13;10.88;;;5.43;;
73670;SDS011;61968;48.178;11.566;2023-02-13T03:07:03;11.13;;;5.18;;
73670;SDS011;61968;48.178;11.566;2023-02-13T03:09:34;10.57;;;5.05;;
73670;SDS011;61968;48.178;11.566;2023-02-13T03:12:22;11.07;;;5.50;;
73670;SDS011;61968;48.178;11.566;2023-02-13T03:15:08;12.00;;;5.15;;
73670;SDS011;61968;48.178;11.566;2023-02-13T03:17:35;10.38;;;5.30;;
73670;SDS011;61968;48.178;11.566;2023-02-13T03:20:25;9.10;;;4.78;;
73670;SDS011;61968;48.178;11.566;2023-02-13T03:23:22;10.75;;;5.45;;
73670;SDS011;61968;48.178;11.566;2023-02-13T03:26:02;12.20;;;5.47;;
73670;SDS011;61968;48.178;11.566;2023-02-13T03:28:42;11.18;;;4.72;;
73670;SDS011;61968;48.178;11.566;2023-02-13T03:31:33;14.30;;;6.28;;
73670;SDS011;61968;48.178;11.566;2023-02-13T03:34:04;10.38;;;5.95;;
73670;SDS011;61968;48.178;11.566;2023-02-13T03:36:36;13.15;;;5.28;;
73670;SDS011;61968;48.178;11.566;2023-02-13T03:39:30;10.63;;;5.20;;
73670;SDS011;61968;48.178;11.566;2023-02-13T03:42:07;11.75;;;5.30;;
73670;SDS011;61968;48.178;11.566;2023-02-13T03:44:41;11.05;;;5.43;;
73670;SDS011;61968;48.178;11.566;2023-02-13T03:49:59;10.27;;;5.13;;
73670;SDS011;61968;48.178;11.566;2023-02-13T03:52:34;11.70;;;4.55;;
73670;SDS011;61968;48.178;11.566;2023-02-13T03:55:07;11.40;;;5.30;;
73670;SDS011;61968;48.178;11.566;2023-02-13T03:57:55;11.55;;;5.13;;
73670;SDS011;61968;48.178;11.566;2023-02-13T04:00:43;10.00;;;5.05;;
73670;SDS011;61968;48.178;11.566;2023-02-13T04:03:15;14.15;;;4.80;;
73670;SDS011;61968;48.178;11.566;2023-02-13T04:05:48;9.57;;;5.15;;
73670;SDS011;61968;48.178;11.566;2023-02-13T04:08:20;9.93;;;4.50;;
73670;SDS011;61968;48.178;11.566;2023-02-13T04:10:48;10.38;;;5.00;;
73670;SDS011;61968;48.178;11.566;2023-02-13T04:13:19;11.45;;;5.38;;
73670;SDS011;61968;48.178;11.566;2023-02-13T04:15:52;15.40;;;6.80;;
73670;SDS011;61968;48.178;11.566;2023-02-13T04:18:23;12.55;;;5.60;;
73670;SDS011;61968;48.178;11.566;2023-02-13T04:20:53;12.00;;;5.82;;
73670;SDS011;61968;48.178;11.566;2023-02-13T04:23:20;8.55;;;4.35;;
73670;SDS011;61968;48.178;11.566;2023-02-13T04:25:47;10.82;;;5.43;;
73670;SDS011;61968;48.178;11.566;2023-02-13T04:28:17;7.35;;;3.80;;
73670;SDS011;61968;48.178;11.566;2023-02-13T04:30:43;10.75;;;4.82;;
73670;SDS011;61968;48.178;11.566;2023-02-13T04:33:10;11.68;;;4.80;;
73670;SDS011;61968;48.178;11.566;2023-02-13T04:35:36;10.27;;;4.75;;
73670;SDS011;61968;48.178;11.566;2023-02-13T04:38:03;14.52;;;4.28;;
73670;SDS011;61968;48.178;11.566;2023-02-13T04:40:30;7.75;;;4.03;;
73670;SDS011;61968;48.178;11.566;2023-02-13T04:42:57;10.50;;;4.63;;
73670;SDS011;61968;48.178;11.566;2023-02-13T04:47:50;9.70;;;4.88;;
73670;SDS011;61968;48.178;11.566;2023-02-13T04:50:18;9.10;;;4.57;;
73670;SDS011;61968;48.178;11.566;2023-02-13T04:52:44;11.10;;;5.05;;
73670;SDS011;61968;48.178;11.566;2023-02-13T04:55:11;12.75;;;5.00;;
73670;SDS011;61968;48.178;11.566;2023-02-13T04:57:39;10.43;;;5.28;;
73670;SDS011;61968;48.178;11.566;2023-02-13T05:00:06;10.48;;;4.93;;
73670;SDS011;61968;48.178;11.566;2023-02-13T05:02:33;8.43;;;4.43;;
73670;SDS011;61968;48.178;11.566;2023-02-13T05:05:00;9.07;;;5.43;;
73670;SDS011;61968;48.178;11.566;2023-02-13T05:07:26;9.63;;;4.45;;
73670;SDS011;61968;48.178;11.566;2023-02-13T05:09:52;7.72;;;4.25;;
73670;SDS011;61968;48.178;11.566;2023-02-13T05:12:19;21.45;;;7.93;;
73670;SDS011;61968;48.178;11.566;2023-02-13T05:14:47;16.10;;;7.53;;
73670;SDS011;61968;48.178;11.566;2023-02-13T05:17:13;10.93;;;5.45;;
73670;SDS011;61968;48.178;11.566;2023-02-13T05:22:07;10.35;;;5.05;;
73670;SDS011;61968;48.178;11.566;2023-02-13T05:24:51;9.55;;;4.90;;
73670;SDS011;61968;48.178;11.566;2023-02-13T05:27:17;8.40;;;4.75;;
73670;SDS011;61968;48.178;11.566;2023-02-13T05:32:11;6.32;;;4.03;;
73670;SDS011;61968;48.178;11.566;2023-02-13T05:34:38;8.77;;;4.28;;
73670;SDS011;61968;48.178;11.566;2023-02-13T05:39:31;8.15;;;5.40;;
73670;SDS011;61968;48.178;11.566;2023-02-13T05:41:57;7.68;;;4.68;;
73670;SDS011;61968;48.178;11.566;2023-02-13T05:44:23;10.65;;;5.30;;
73670;SDS011;61968;48.178;11.566;2023-02-13T05:46:50;9.25;;;5.00;;
73670;SDS011;61968;48.178;11.566;2023-02-13T05:49:18;6.68;;;4.35;;
73670;SDS011;61968;48.178;11.566;2023-02-13T05:51:45;7.28;;;4.32;;
73670;SDS011;61968;48.178;11.566;2023-02-13T05:54:11;8.98;;;4.50;;
73670;SDS011;61968;48.178;11.566;2023-02-13T05:56:38;10.68;;;5.10;;
73670;SDS011;61968;48.178;11.566;2023-02-13T05:59:04;11.30;;;5.13;;
73670;SDS011;61968;48.178;11.566;2023-02-13T06:01:31;7.78;;;4.95;;
73670;SDS011;61968;48.178;11.566;2023-02-13T06:03:57;9.00;;;4.80;;
73670;SDS011;61968;48.178;11.566;2023-02-13T06:06:25;12.43;;;5.90;;
73670;SDS011;61968;48.178;11.566;2023-02-13T06:08:52;9.15;;;5.35;;
73670;SDS011;61968;48.178;11.566;2023-02-13T06:11:19;10.13;;;4.93;;
73670;SDS011;61968;48.178;11.566;2023-02-13T06:13:46;9.50;;;5.57;;
73670;SDS011;61968;48.178;11.566;2023-02-13T06:16:12;14.50;;;6.82;;
73670;SDS011;61968;48.178;11.566;2023-02-13T06:18:39;9.18;;;4.80;;
73670;SDS011;61968;48.178;11.566;2023-02-13T06:21:05;14.85;;;6.32;;
73670;SDS011;61968;48.178;11.566;2023-02-13T06:23:33;9.68;;;4.97;;
73670;SDS011;61968;48.178;11.566;2023-02-13T06:26:01;12.05;;;5.43;;
73670;SDS011;61968;48.178;11.566;2023-02-13T06:28:28;9.32;;;5.07;;
73670;SDS011;61968;48.178;11.566;2023-02-13T06:30:55;11.80;;;5.70;;
73670;SDS011;61968;48.178;11.566;2023-02-13T06:33:21;11.80;;;5.95;;
73670;SDS011;61968;48.178;11.566;2023-02-13T06:35:48;12.40;;;5.47;;
73670;SDS011;61968;48.178;11.566;2023-02-13T06:38:14;11.32;;;5.32;;
73670;SDS011;61968;48.178;11.566;2023-02-13T06:40:44;12.55;;;6.18;;
73670;SDS011;61968;48.178;11.566;2023-02-13T06:43:10;11.20;;;5.80;;
73670;SDS011;61968;48.178;11.566;2023-02-13T06:45:37;11.05;;;5.82;;
73670;SDS011;61968;48.178;11.566;2023-02-13T06:48:04;11.00;;;5.47;;
73670;SDS011;61968;48.178;11.566;2023-02-13T06:50:30;11.85;;;5.55;;
73670;SDS011;61968;48.178;11.566;2023-02-13T06:52:58;13.77;;;6.10;;
73670;SDS011;61968;48.178;11.566;2023-02-13T06:55:25;12.93;;;5.78;;
73670;SDS011;61968;48.178;11.566;2023-02-13T06:57:53;13.50;;;6.97;;
73670;SDS011;61968;48.178;11.566;2023-02-13T07:00:20;11.38;;;5.60;;
73670;SDS011;61968;48.178;11.566;2023-02-13T07:02:48;12.68;;;6.43;;
73670;SDS011;61968;48.178;11.566;2023-02-13T07:05:14;13.80;;;6.18;;
73670;SDS011;61968;48.178;11.566;2023-02-13T07:07:41;11.18;;;6.38;;
73670;SDS011;61968;48.178;11.566;2023-02-13T07:10:09;9.90;;;6.07;;
73670;SDS011;61968;48.178;11.566;2023-02-13T07:12:37;13.60;;;6.10;;
73670;SDS011;61968;48.178;11.566;2023-02-13T07:15:06;8.98;;;4.88;;
73670;SDS011;61968;48.178;11.566;2023-02-13T07:17:33;11.10;;;5.93;;
73670;SDS011;61968;48.178;11.566;2023-02-13T07:20:00;13.57;;;6.35;;
73670;SDS011;61968;48.178;11.566;2023-02-13T07:22:26;13.07;;;6.35;;
73670;SDS011;61968;48.178;11.566;2023-02-13T07:24:53;11.13;;;5.68;;
73670;SDS011;61968;48.178;11.566;2023-02-13T07:29:45;9.18;;;5.20;;
73670;SDS011;61968;48.178;11.566;2023-02-13T07:32:13;10.20;;;4.72;;
73670;SDS011;61968;48.178;11.566;2023-02-13T07:34:40;10.88;;;6.05;;
73670;SDS011;61968;48.178;11.566;2023-02-13T07:37:06;10.55;;;5.40;;
73670;SDS011;61968;48.178;11.566;2023-02-13T07:39:33;12.35;;;5.57;;
73670;SDS011;61968;48.178;11.566;2023-02-13T07:42:02;12.75;;;6.35;;
73670;SDS011;61968;48.178;11.566;2023-02-13T07:44:29;13.85;;;5.95;;
73670;SDS011;61968;48.178;11.566;2023-02-13T07:46:56;10.35;;;5.53;;
73670;SDS011;61968;48.178;11.566;2023-02-13T07:49:24;9.38;;;6.28;;
73670;SDS011;61968;48.178;11.566;2023-02-13T07:51:50;10.77;;;6.60;;
73670;SDS011;61968;48.178;11.566;2023-02-13T07:54:17;9.90;;;5.82;;
73670;SDS011;61968;48.178;11.566;2023-02-13T07:59:10;13.15;;;6.35;;
73670;SDS011;61968;48.178;11.566;2023-02-13T08:01:36;12.25;;;6.28;;
73670;SDS011;61968;48.178;11.566;2023-02-13T08:04:03;12.60;;;6.75;;
73670;SDS011;61968;48.178;11.566;2023-02-13T08:06:31;13.90;;;5.80;;
73670;SDS011;61968;48.178;11.566;2023-02-13T08:08:57;12.98;;;7.25;;
73670;SDS011;61968;48.178;11.566;2023-02-13T08:11:44;10.23;;;5.43;;
73670;SDS011;61968;48.178;11.566;2023-02-13T08:14:20;10.18;;;5.97;;
73670;SDS011;61968;48.178;11.566;2023-02-13T08:16:47;11.00;;;5.43;;
73670;SDS011;61968;48.178;11.566;2023-02-13T08:19:13;16.05;;;7.38;;
73670;SDS011;61968;48.178;11.566;2023-02-13T08:24:08;16.42;;;6.93;;
73670;SDS011;61968;48.178;11.566;2023-02-13T08:26:34;17.63;;;6.95;;
73670;SDS011;61968;48.178;11.566;2023-02-13T08:29:01;16.15;;;6.50;;
73670;SDS011;61968;48.178;11.566;2023-02-13T08:31:28;11.38;;;5.85;;
73670;SDS011;61968;48.178;11.566;2023-02-13T08:33:55;17.77;;;7.35;;
73670;SDS011;61968;48.178;11.566;2023-02-13T08:36:22;15.48;;;6.13;;
73670;SDS011;61968;48.178;11.566;2023-02-13T08:38:50;15.65;;;6.05;;
73670;SDS011;61968;48.178;11.566;2023-02-13T08:41:17;15.30;;;6.38;;
73670;SDS011;61968;48.178;11.566;2023-02-13T08:43:46;12.85;;;6.07;;
73670;SDS011;61968;48.178;11.566;2023-02-13T08:46:14;16.20;;;7.07;;
73670;SDS011;61968;48.178;11.566;2023-02-13T08:48:41;15.32;;;7.05;;
73670;SDS011;61968;48.178;11.566;2023-02-13T08:51:08;13.13;;;6.55;;
73670;SDS011;61968;48.178;11.566;2023-02-13T08:53:36;16.80;;;7.90;;
73670;SDS011;61968;48.178;11.566;2023-02-13T08:56:05;16.73;;;7.72;;
73670;SDS011;61968;48.178;11.566;2023-02-13T08:58:32;16.52;;;7.20;;
73670;SDS011;61968;48.178;11.566;2023-02-13T09:00:58;14.63;;;7.20;;
73670;SDS011;61968;48.178;11.566;2023-02-13T09:03:25;16.00;;;6.95;;
73670;SDS011;61968;48.178;11.566;2023-02-13T09:05:52;14.35;;;7.03;;
73670;SDS011;61968;48.178;11.566;2023-02-13T09:08:18;13.75;;;6.63;;
73670;SDS011;61968;48.178;11.566;2023-02-13T09:13:12;11.75;;;6.28;;
73670;SDS011;61968;48.178;11.566;2023-02-13T09:15:39;14.00;;;6.13;;
73670;SDS011;61968;48.178;11.566;2023-02-13T09:18:07;14.10;;;6.03;;
73670;SDS011;61968;48.178;11.566;2023-02-13T09:23:00;13.23;;;7.03;;
73670;SDS011;61968;48.178;11.566;2023-02-13T09:25:26;15.20;;;7.35;;
73670;SDS011;61968;48.178;11.566;2023-02-13T09:27:52;12.48;;;6.35;;
73670;SDS011;61968;48.178;11.566;2023-02-13T09:30:20;12.30;;;6.57;;
73670;SDS011;61968;48.178;11.566;2023-02-13T09:32:50;12.63;;;6.13;;
73670;SDS011;61968;48.178;11.566;2023-02-13T09:35:17;14.00;;;6.03;;
73670;SDS011;61968;48.178;11.566;2023-02-13T09:37:44;14.15;;;6.60;;
73670;SDS011;61968;48.178;11.566;2023-02-13T09:40:19;12.02;;;6.07;;
73670;SDS011;61968;48.178;11.566;2023-02-13T09:42:51;13.55;;;6.15;;
73670;SDS011;61968;48.178;11.566;2023-02-13T09:45:21;13.52;;;6.72;;
73670;SDS011;61968;48.178;11.566;2023-02-13T09:47:48;13.43;;;6.38;;
73670;SDS011;61968;48.178;11.566;2023-02-13T09:50:16;11.25;;;5.90;;
73670;SDS011;61968;48.178;11.566;2023-02-13T09:52:46;12.18;;;6.65;;
73670;SDS011;61968;48.178;11.566;2023-02-13T09:55:15;12.80;;;6.30;;
73670;SDS011;61968;48.178;11.566;2023-02-13T09:57:46;11.77;;;6.60;;
73670;SDS011;61968;48.178;11.566;2023-02-13T10:00:25;15.15;;;6.20;;
73670;SDS011;61968;48.178;11.566;2023-02-13T10:05:52;21.65;;;8.23;;
73670;SDS011;61968;48.178;11.566;2023-02-13T10:08:30;16.80;;;8.88;;
73670;SDS011;61968;48.178;11.566;2023-02-13T10:11:09;16.65;;;7.90;;
73670;SDS011;61968;48.178;11.566;2023-02-13T10:13:54;13.70;;;6.72;;
73670;SDS011;61968;48.178;11.566;2023-02-13T10:16:29;15.70;;;6.55;;
73670;SDS011;61968;48.178;11.566;2023-02-13T10:19:01;14.55;;;7.47;;
73670;SDS011;61968;48.178;11.566;2023-02-13T10:21:33;13.65;;;7.05;;
73670;SDS011;61968;48.178;11.566;2023-02-13T10:24:04;16.13;;;7.32;;
73670;SDS011;61968;48.178;11.566;2023-02-13T10:26:37;16.25;;;7.70;;
73670;SDS011;61968;48.178;11.566;2023-02-13T10:29:11;15.00;;;6.47;;
73670;SDS011;61968;48.178;11.566;2023-02-13T10:32:02;17.05;;;5.63;;
73670;SDS011;61968;48.178;11.566;2023-02-13T10:34:33;13.38;;;6.18;;
73670;SDS011;61968;48.178;11.566;2023-02-13T10:37:07;13.57;;;7.40;;
73670;SDS011;61968;48.178;11.566;2023-02-13T10:39:39;15.45;;;7.00;;
73670;SDS011;61968;48.178;11.566;2023-02-13T10:42:10;16.40;;;7.45;;
73670;SDS011;61968;48.178;11.566;2023-02-13T10:44:48;15.13;;;6.55;;
73670;SDS011;61968;48.178;11.566;2023-02-13T10:47:28;12.93;;;6.45;;
73670;SDS011;61968;48.178;11.566;2023-02-13T10:50:13;14.52;;;7.50;;
73670;SDS011;61968;48.178;11.566;2023-02-13T10:52:49;10.45;;;6.35;;
73670;SDS011;61968;48.178;11.566;2023-02-13T10:55:28;14.55;;;6.78;;
73670;SDS011;61968;48.178;11.566;2023-02-13T10:58:11;16.92;;;7.10;;
73670;SDS011;61968;48.178;11.566;2023-02-13T11:00:45;13.35;;;6.00;;
73670;SDS011;61968;48.178;11.566;2023-02-13T11:03:19;15.75;;;6.80;;
73670;SDS011;61968;48.178;11.566;2023-02-13T11:05:47;16.73;;;7.55;;
73670;SDS011;61968;48.178;11.566;2023-02-13T11:08:16;18.00;;;7.90;;
73670;SDS011;61968;48.178;11.566;2023-02-13T11:10:45;14.18;;;7.50;;
73670;SDS011;61968;48.178;11.566;2023-02-13T11:13:15;15.52;;;7.07;;
73670;SDS011;61968;48.178;11.566;2023-02-13T11:15:54;11.93;;;6.10;;
73670;SDS011;61968;48.178;11.566;2023-02-13T11:18:24;12.57;;;6.10;;
73670;SDS011;61968;48.178;11.566;2023-02-13T11:21:04;15.25;;;6.40;;
73670;SDS011;61968;48.178;11.566;2023-02-13T11:23:36;15.60;;;6.93;;
73670;SDS011;61968;48.178;11.566;2023-02-13T11:26:06;15.43;;;7.22;;
73670;SDS011;61968;48.178;11.566;2023-02-13T11:28:36;12.70;;;6.28;;
73670;SDS011;61968;48.178;11.566;2023-02-13T11:31:09;15.27;;;6.90;;
73670;SDS011;61968;48.178;11.566;2023-02-13T11:33:40;15.80;;;6.95;;
73670;SDS011;61968;48.178;11.566;2023-02-13T11:36:08;13.05;;;6.75;;
73670;SDS011;61968;48.178;11.566;2023-02-13T11:38:39;16.80;;;7.43;;
73670;SDS011;61968;48.178;11.566;2023-02-13T11:41:07;15.27;;;7.55;;
73670;SDS011;61968;48.178;11.566;2023-02-13T11:43:35;14.80;;;6.45;;
73670;SDS011;61968;48.178;11.566;2023-02-13T11:46:11;13.68;;;6.03;;
73670;SDS011;61968;48.178;11.566;2023-02-13T11:48:44;12.93;;;6.65;;
73670;SDS011;61968;48.178;11.566;2023-02-13T11:51:38;15.00;;;7.03;;
73670;SDS011;61968;48.178;11.566;2023-02-13T11:54:18;14.82;;;7.40;;
73670;SDS011;61968;48.178;11.566;2023-02-13T11:56:53;18.27;;;7.57;;
73670;SDS011;61968;48.178;11.566;2023-02-13T11:59:21;17.40;;;8.15;;
73670;SDS011;61968;48.178;11.566;2023-02-13T12:02:00;17.73;;;8.65;;
73670;SDS011;61968;48.178;11.566;2023-02-13T12:04:29;13.52;;;6.80;;
73670;SDS011;61968;48.178;11.566;2023-02-13T12:07:00;12.20;;;7.00;;
73670;SDS011;61968;48.178;11.566;2023-02-13T12:09:28;17.77;;;7.25;;
73670;SDS011;61968;48.178;11.566;2023-02-13T12:11:56;16.33;;;7.25;;
73670;SDS011;61968;48.178;11.566;2023-02-13T12:14:28;15.05;;;7.60;;
73670;SDS011;61968;48.178;11.566;2023-02-13T12:16:57;14.85;;;8.02;;
73670;SDS011;61968;48.178;11.566;2023-02-13T12:19:32;16.45;;;6.22;;
73670;SDS011;61968;48.178;11.566;2023-02-13T12:25:10;26.50;;;9.23;;
73670;SDS011;61968;48.178;11.566;2023-02-13T12:27:51;23.98;;;10.48;;
73670;SDS011;61968;48.178;11.566;2023-02-13T12:30:35;22.83;;;10.45;;
73670;SDS011;61968;48.178;11.566;2023-02-13T12:33:13;17.23;;;8.90;;
73670;SDS011;61968;48.178;11.566;2023-02-13T12:35:54;21.27;;;8.68;;
73670;SDS011;61968;48.178;11.566;2023-02-13T12:38:38;18.88;;;8.85;;
73670;SDS011;61968;48.178;11.566;2023-02-13T12:41:17;21.42;;;9.35;;
73670;SDS011;61968;48.178;11.566;2023-02-13T12:43:51;18.02;;;9.02;;
73670;SDS011;61968;48.178;11.566;2023-02-13T12:46:31;15.93;;;7.55;;
73670;SDS011;61968;48.178;11.566;2023-02-13T12:49:06;16.63;;;7.70;;
73670;SDS011;61968;48.178;11.566;2023-02-13T12:51:48;17.90;;;7.50;;
73670;SDS011;61968;48.178;11.566;2023-02-13T12:54:35;17.98;;;8.65;;
73670;SDS011;61968;48.178;11.566;2023-02-13T12:57:13;18.42;;;7.88;;
73670;SDS011;61968;48.178;11.566;2023-02-13T12:59:58;18.20;;;8.82;;
73670;SDS011;61968;48.178;11.566;2023-02-13T13:02:44;16.58;;;8.25;;
73670;SDS011;61968;48.178;11.566;2023-02-13T13:08:22;12.68;;;7.15;;
73670;SDS011;61968;48.178;11.566;2023-02-13T13:11:13;18.30;;;8.40;;
73670;SDS011;61968;48.178;11.566;2023-02-13T13:13:53;17.00;;;7.45;;
73670;SDS011;61968;48.178;11.566;2023-02-13T13:16:32;15.73;;;8.23;;
73670;SDS011;61968;48.178;11.566;2023-02-13T13:19:10;15.10;;;8.07;;
73670;SDS011;61968;48.178;11.566;2023-02-13T13:21:45;15.93;;;7.88;;
73670;SDS011;61968;48.178;11.566;2023-02-13T13:26:50;13.25;;;7.20;;
73670;SDS011;61968;48.178;11.566;2023-02-13T13:29:21;14.10;;;7.45;;
73670;SDS011;61968;48.178;11.566;2023-02-13T13:31:52;14.27;;;6.65;;
73670;SDS011;61968;48.178;11.566;2023-02-13T13:34:22;23.60;;;7.20;;
73670;SDS011;61968;48.178;11.566;2023-02-13T13:36:52;13.75;;;7.45;;
73670;SDS011;61968;48.178;11.566;2023-02-13T13:39:28;13.63;;;6.38;;
73670;SDS011;61968;48.178;11.566;2023-02-13T13:42:04;16.00;;;7.85;;
73670;SDS011;61968;48.178;11.566;2023-02-13T13:47:35;13.50;;;6.70;;
73670;SDS011;61968;48.178;11.566;2023-02-13T13:50:16;12.82;;;7.03;;
73670;SDS011;61968;48.178;11.566;2023-02-13T13:58:33;11.55;;;7.03;;
73670;SDS011;61968;48.178;11.566;2023-02-13T14:01:26;11.60;;;6.32;;
73670;SDS011;61968;48.178;11.566;2023-02-13T14:03:55;16.45;;;8.07;;
73670;SDS011;61968;48.178;11.566;2023-02-13T14:06:23;14.15;;;6.85;;
73670;SDS011;61968;48.178;11.566;2023-02-13T14:08:53;16.17;;;6.25;;
73670;SDS011;61968;48.178;11.566;2023-02-13T14:13:53;13.45;;;6.93;;
73670;SDS011;61968;48.178;11.566;2023-02-13T14:19:02;20.20;;;6.72;;
73670;SDS011;61968;48.178;11.566;2023-02-13T14:21:31;10.65;;;6.28;;
73670;SDS011;61968;48.178;11.566;2023-02-13T14:23:57;12.65;;;7.38;;
73670;SDS011;61968;48.178;11.566;2023-02-13T14:26:31;15.35;;;7.65;;
73670;SDS011;61968;48.178;11.566;2023-02-13T14:31:57;14.00;;;7.80;;
73670;SDS011;61968;48.178;11.566;2023-02-13T14:34:28;13.77;;;6.95;;
73670;SDS011;61968;48.178;11.566;2023-02-13T14:37:16;13.90;;;6.93;;
73670;SDS011;61968;48.178;11.566;2023-02-13T14:42:59;11.55;;;6.18;;
73670;SDS011;61968;48.178;11.566;2023-02-13T14:45:34;11.15;;;6.15;;
73670;SDS011;61968;48.178;11.566;2023-02-13T14:48:11;15.88;;;7.57;;
73670;SDS011;61968;48.178;11.566;2023-02-13T14:50:44;14.48;;;7.13;;
73670;SDS011;61968;48.178;11.566;2023-02-13T14:53:16;11.25;;;6.50;;
73670;SDS011;61968;48.178;11.566;2023-02-13T14:55:47;14.45;;;6.55;;
73670;SDS011;61968;48.178;11.566;2023-02-13T14:58:21;14.77;;;7.15;;
73670;SDS011;61968;48.178;11.566;2023-02-13T15:00:51;12.38;;;6.97;;
73670;SDS011;61968;48.178;11.566;2023-02-13T15:03:23;9.60;;;5.30;;
73670;SDS011;61968;48.178;11.566;2023-02-13T15:05:53;11.23;;;5.75;;
73670;SDS011;61968;48.178;11.566;2023-02-13T15:08:23;16.50;;;7.90;;
73670;SDS011;61968;48.178;11.566;2023-02-13T15:10:53;10.40;;;6.20;;
73670;SDS011;61968;48.178;11.566;2023-02-13T15:13:23;13.23;;;6.13;;
73670;SDS011;61968;48.178;11.566;2023-02-13T15:15:51;16.00;;;7.35;;
73670;SDS011;61968;48.178;11.566;2023-02-13T15:18:21;16.65;;;7.47;;
73670;SDS011;61968;48.178;11.566;2023-02-13T15:20:53;13.45;;;6.53;;
73670;SDS011;61968;48.178;11.566;2023-02-13T15:23:22;14.95;;;6.35;;
73670;SDS011;61968;48.178;11.566;2023-02-13T15:25:55;13.27;;;7.78;;
73670;SDS011;61968;48.178;11.566;2023-02-13T15:28:24;13.55;;;6.60;;
73670;SDS011;61968;48.178;11.566;2023-02-13T15:30:54;13.20;;;6.55;;
73670;SDS011;61968;48.178;11.566;2023-02-13T15:33:23;10.02;;;5.95;;
73670;SDS011;61968;48.178;11.566;2023-02-13T15:35:55;13.65;;;6.45;;
73670;SDS011;61968;48.178;11.566;2023-02-13T15:38:28;12.13;;;6.47;;
73670;SDS011;61968;48.178;11.566;2023-02-13T15:40:56;12.23;;;6.10;;
73670;SDS011;61968;48.178;11.566;2023-02-13T15:43:29;13.57;;;6.75;;
73670;SDS011;61968;48.178;11.566;2023-02-13T15:45:59;11.95;;;5.80;;
73670;SDS011;61968;48.178;11.566;2023-02-13T15:48:29;12.63;;;5.50;;
73670;SDS011;61968;48.178;11.566;2023-02-13T15:50:57;13.82;;;6.05;;
73670;SDS011;61968;48.178;11.566;2023-02-13T15:53:24;11.63;;;6.72;;
73670;SDS011;61968;48.178;11.566;2023-02-13T15:55:55;12.73;;;6.50;;
73670;SDS011;61968;48.178;11.566;2023-02-13T15:58:24;11.98;;;5.88;;
73670;SDS011;61968;48.178;11.566;2023-02-13T16:00:55;13.98;;;5.82;;